createdAt,value
2023-10-18T00:04:01.908Z,20.8
2023-10-18T00:09:54.598Z,20.8
2023-10-18T00:15:30.932Z,20.8
2023-10-18T00:21:08.119Z,20.8
2023-10-18T00:27:02.922Z,20.8
2023-10-18T00:32:55.192Z,20.8
2023-10-18T00:38:47.041Z,20.8
2023-10-18T00:44:39.119Z,20.8
2023-10-18T00:50:15.975Z,20.8
2023-10-18T00:56:08.215Z,20.8
2023-10-18T01:02:19.953Z,20.8
2023-10-18T01:08:14.441Z,20.8
2023-10-18T01:13:51.247Z,20.7
2023-10-18T01:19:45.830Z,20.8
2023-10-18T01:25:21.871Z,20.7
2023-10-18T01:31:13.980Z,20.7
2023-10-18T01:36:51.010Z,20.7
2023-10-18T01:42:50.096Z,20.7
2023-10-18T01:48:58.891Z,20.7
2023-10-18T01:54:51.125Z,20.8
2023-10-18T02:00:42.741Z,20.7
2023-10-18T02:06:49.071Z,20.7
2023-10-18T02:12:41.923Z,20.7
2023-10-18T02:18:34.710Z,20.7
2023-10-18T02:24:11.748Z,20.7
2023-10-18T02:29:33.275Z,20.7
2023-10-18T02:35:37.452Z,20.7
2023-10-18T02:41:43.510Z,20.7
2023-10-18T02:47:36.032Z,20.8
2023-10-18T02:53:28.476Z,20.9
2023-10-18T02:59:21.400Z,20.9
2023-10-18T03:04:59.075Z,20.9
2023-10-18T03:10:52.038Z,20.9
2023-10-18T03:16:38.221Z,20.9
2023-10-18T03:22:03.547Z,20.9
2023-10-18T03:27:55.489Z,20.8
2023-10-18T03:33:47.563Z,20.8
2023-10-18T03:39:42.113Z,20.8
2023-10-18T03:45:33.565Z,20.8
2023-10-18T03:51:28.724Z,20.8
2023-10-18T03:56:50.055Z,20.8
2023-10-18T04:02:41.462Z,20.8
2023-10-18T04:08:35.449Z,20.8
2023-10-18T04:14:26.727Z,20.8
2023-10-18T04:19:48.135Z,20.8
2023-10-18T04:25:25.678Z,20.7
2023-10-18T04:31:18.074Z,20.7
2023-10-18T04:37:10.150Z,20.7
2023-10-18T04:42:31.760Z,20.7
2023-10-18T04:48:24.286Z,20.7
2023-10-18T04:54:20.167Z,20.7
2023-10-18T04:59:57.244Z,20.6
2023-10-18T05:05:51.591Z,20.6
2023-10-18T05:11:46.479Z,20.6
2023-10-18T05:17:52.559Z,20.6
2023-10-18T05:23:44.580Z,20.5
2023-10-18T05:29:36.627Z,20.5
2023-10-18T05:35:55.533Z,20.5
2023-10-18T05:41:47.671Z,20.5
2023-10-18T05:47:40.840Z,20.4
2023-10-18T05:53:49.162Z,20.4
2023-10-18T05:59:43.694Z,20.4
2023-10-18T06:05:36.720Z,20.4
2023-10-18T06:11:28.748Z,20.4
2023-10-18T06:17:21.492Z,20.4
2023-10-18T06:23:13.726Z,20.4
2023-10-18T06:29:05.155Z,20.4
2023-10-18T06:34:57.059Z,20.4
2023-10-18T06:41:02.727Z,20.4
2023-10-18T06:46:57.952Z,20.4
2023-10-18T06:53:25.860Z,20.4
2023-10-18T06:59:17.760Z,20.4
2023-10-18T07:04:57.976Z,20.3
2023-10-18T07:10:53.599Z,20.2
2023-10-18T07:17:11.287Z,20.2
2023-10-18T07:23:03.114Z,20.3
2023-10-18T07:28:57.218Z,20.4
2023-10-18T07:34:52.395Z,20.9
2023-10-18T07:40:47.896Z,21.8
2023-10-18T07:46:42.243Z,22.6
2023-10-18T07:52:34.083Z,23.4
2023-10-18T07:58:28.233Z,24.4
2023-10-18T08:04:22.501Z,25.3
2023-10-18T08:15:37.529Z,26.9
2023-10-18T08:26:52.909Z,28.6
2023-10-18T08:32:30.176Z,29.3
2023-10-18T08:38:23.534Z,29.9
2023-10-18T08:44:13.581Z,30.6
2023-10-18T08:50:08.940Z,31.5
2023-10-18T08:56:03.082Z,32.3
2023-10-18T09:01:56.226Z,33.1
2023-10-18T09:07:48.452Z,33.8
2023-10-18T09:13:26.270Z,34.3
2023-10-18T09:19:13.334Z,34.6
2023-10-18T09:24:49.174Z,34.7
2023-10-18T09:30:40.749Z,34.7
2023-10-18T09:36:33.244Z,34.8
2023-10-18T09:42:24.839Z,34.8
2023-10-18T09:48:18.080Z,34.8
2023-10-18T09:54:09.805Z,34.8
2023-10-18T10:00:01.118Z,34.8
2023-10-18T10:05:54.461Z,34.8
2023-10-18T10:11:48.201Z,34.8
2023-10-18T10:17:27.122Z,37.8
2023-10-18T10:23:21.839Z,40.8
2023-10-18T10:30:14.108Z,39.1
2023-10-18T10:36:08.578Z,38.2
2023-10-18T10:41:47.534Z,37.6
2023-10-18T10:47:39.298Z,37.2
2023-10-18T10:53:16.384Z,36.9
2023-10-18T10:59:08.526Z,36.6
2023-10-18T11:05:00.937Z,36.3
2023-10-18T11:10:52.917Z,36.1
2023-10-18T11:16:29.988Z,35.9
2023-10-18T11:22:23.890Z,35.8
2023-10-18T11:28:15.287Z,35.6
2023-10-18T11:33:53.677Z,35.5
2023-10-18T11:39:32.490Z,35.4
2023-10-18T11:44:52.834Z,35.3
2023-10-18T11:50:30.191Z,35.2
2023-10-18T11:56:28.292Z,35.1
2023-10-18T12:01:49.498Z,35
2023-10-18T12:07:45.225Z,34.9
2023-10-18T12:13:39.098Z,34.8
2023-10-18T12:19:16.088Z,34.8
2023-10-18T12:25:11.701Z,34.6
2023-10-18T12:31:19.603Z,34.6
2023-10-18T12:37:14.229Z,34.4
2023-10-18T12:43:07.260Z,34.4
2023-10-18T12:49:02.971Z,34.3
2023-10-18T12:54:23.405Z,34.3
2023-10-18T13:00:17.404Z,34.2
2023-10-18T13:06:10.320Z,34.1
2023-10-18T13:11:33.762Z,34.1
2023-10-18T13:17:11.379Z,34
2023-10-18T13:23:07.264Z,33.9
2023-10-18T13:28:59.721Z,33.8
2023-10-18T13:34:53.966Z,33.6
2023-10-18T13:40:46.108Z,33.5
2023-10-18T13:46:24.654Z,33.4
2023-10-18T13:52:18.576Z,33.3
2023-10-18T13:58:11.150Z,33.2
2023-10-18T14:03:37.692Z,33.1
2023-10-18T14:09:15.437Z,33.1
2023-10-18T14:14:36.358Z,33
2023-10-18T14:20:08.933Z,32.9
2023-10-18T14:25:37.076Z,32.9
2023-10-18T14:30:57.798Z,32.8
2023-10-18T14:36:40.336Z,32.6
2023-10-18T14:42:39.080Z,32.4
2023-10-18T14:48:03.702Z,32.1
2023-10-18T14:53:11.083Z,31.9
2023-10-18T14:58:32.411Z,31.8
2023-10-18T15:03:54.261Z,31.7
2023-10-18T15:09:14.810Z,31.6
2023-10-18T15:14:51.650Z,31.6
2023-10-18T15:20:30.418Z,31.5
2023-10-18T15:26:06.375Z,31.4
2023-10-18T15:31:58.411Z,31.4
2023-10-18T15:37:34.097Z,31.4
2023-10-18T15:42:56.607Z,31.3
2023-10-18T15:48:35.075Z,31.3
2023-10-18T15:54:12.303Z,31.2
2023-10-18T15:59:48.783Z,31.1
2023-10-18T16:05:26.175Z,28.9
2023-10-18T16:11:02.243Z,27.2
2023-10-18T16:16:38.854Z,26.1
2023-10-18T16:22:00.249Z,25.4
2023-10-18T16:27:05.758Z,24.9
2023-10-18T16:32:42.388Z,24.4
2023-10-18T16:38:03.737Z,24.1
2023-10-18T16:43:24.626Z,23.8
2023-10-18T16:49:01.482Z,23.6
2023-10-18T16:54:49.522Z,23.4
2023-10-18T17:00:28.092Z,23.2
2023-10-18T17:06:05.382Z,23.1
2023-10-18T17:11:42.377Z,23
2023-10-18T17:17:18.884Z,23.4
2023-10-18T17:22:58.198Z,25
2023-10-18T17:28:35.515Z,27.3
2023-10-18T17:34:13.249Z,29.5
2023-10-18T17:39:50.859Z,31.4
2023-10-18T17:45:28.130Z,32.6
2023-10-18T17:51:05.924Z,33.6
2023-10-18T17:56:43.461Z,34.4
2023-10-18T18:02:21.540Z,35.2
2023-10-18T18:08:00.286Z,36
2023-10-18T18:13:40.714Z,36.8
2023-10-18T18:19:04.325Z,37.4
2023-10-18T18:24:27.050Z,37.8
2023-10-18T18:30:21.093Z,37.9
2023-10-18T18:36:15.137Z,37.9
2023-10-18T18:41:52.618Z,38
2023-10-18T18:48:00.694Z,38
2023-10-18T18:53:39.851Z,38
2023-10-18T18:59:17.563Z,38
2023-10-18T19:04:58.549Z,37.9
2023-10-18T19:10:38.163Z,37.9
2023-10-18T19:16:31.669Z,37.9
2023-10-18T19:22:24.149Z,37.9
2023-10-18T19:28:02.188Z,37.8
2023-10-18T19:33:57.979Z,37.8
2023-10-18T19:39:34.714Z,37.7
2023-10-18T19:45:29.994Z,37.7
2023-10-18T19:51:22.688Z,37.6
2023-10-18T19:57:14.765Z,37.6
2023-10-18T20:03:09.277Z,37.4
2023-10-18T20:09:02.284Z,37.4
2023-10-18T20:14:39.232Z,37.3
2023-10-18T20:20:32.041Z,37.3
2023-10-18T20:26:23.602Z,37.2
2023-10-18T20:32:15.401Z,37.1
2023-10-18T20:37:52.815Z,37.1
2023-10-18T20:44:03.162Z,37
2023-10-18T20:49:56.448Z,36.9
2023-10-18T20:55:49.956Z,36.9
2023-10-18T21:01:43.566Z,36.8
2023-10-18T21:07:21.341Z,36.8
2023-10-18T21:12:57.891Z,36.7
2023-10-18T21:18:21.309Z,36.6
2023-10-18T21:23:42.260Z,36.6
2023-10-18T21:29:19.850Z,36.5
2023-10-18T21:34:41.404Z,36.4
2023-10-18T21:40:17.758Z,36.4
2023-10-18T21:45:54.685Z,36.3
2023-10-18T21:51:31.063Z,36.3
2023-10-18T21:57:07.446Z,36.2
2023-10-18T22:02:45.571Z,36.1
2023-10-18T22:08:22.617Z,36.1
2023-10-18T22:13:59.595Z,36
2023-10-18T22:19:37.626Z,35.9
2023-10-18T22:25:14.038Z,35.9
2023-10-18T22:31:05.491Z,35.8
2023-10-18T22:36:58.063Z,35.8
2023-10-18T22:42:50.935Z,35.8
2023-10-18T22:48:43.096Z,35.7
2023-10-18T22:54:35.060Z,35.6
2023-10-18T23:00:11.428Z,35.6
2023-10-18T23:05:33.607Z,35.5
2023-10-18T23:11:10.049Z,35.5
2023-10-18T23:17:02.841Z,35.4
2023-10-18T23:22:40.425Z,35.4
2023-10-18T23:28:17.429Z,35.3
2023-10-18T23:34:09.994Z,35.3
2023-10-18T23:40:02.618Z,35.3
2023-10-18T23:45:39.670Z,35.2
2023-10-18T23:51:31.803Z,35.1
2023-10-18T23:57:23.354Z,35.1
